TimeCDT,TemperatureF,Dew PointF,Humidity,Sea Level PressureIn,VisibilityMPH,Wind Direction,Wind SpeedMPH,Gust SpeedMPH,PrecipitationIn,Events,Conditions,WindDirDegrees,DateUTC
12:13 AM,26.6,8.6,47,30.04,10.0,NW,11.5,-,N/A,,Mostly Cloudy,320,2013-04-01 05:13:00
12:33 AM,26.6,8.6,47,30.05,10.0,NW,8.1,17.3,N/A,,Scattered Clouds,310,2013-04-01 05:33:00
12:54 AM,26.6,8.6,47,30.05,10.0,NW,9.2,-,N/A,,Mostly Cloudy,310,2013-04-01 05:54:00
1:13 AM,24.8,8.6,50,30.06,10.0,WNW,10.4,-,N/A,,Mostly Cloudy,300,2013-04-01 06:13:00
1:33 AM,24.8,10.4,54,30.07,10.0,WNW,8.1,-,N/A,,Mostly Cloudy,300,2013-04-01 06:33:00
2:13 AM,26.6,12.2,55,30.07,10.0,NW,15.0,24.2,N/A,,Overcast,310,2013-04-01 07:13:00
2:33 AM,24.8,12.2,59,30.07,10.0,WNW,12.7,-,N/A,,Overcast,290,2013-04-01 07:33:00
3:13 AM,24.8,12.2,59,30.08,10.0,West,16.1,-,N/A,,Overcast,280,2013-04-01 08:13:00
3:33 AM,23.0,12.2,63,30.08,10.0,WNW,18.4,-,N/A,,Mostly Cloudy,290,2013-04-01 08:33:00
3:54 AM,21.2,10.4,63,30.09,10.0,WNW,16.1,-,N/A,,Scattered Clouds,290,2013-04-01 08:54:00
4:13 AM,21.2,10.4,63,30.09,10.0,West,15.0,-,N/A,,Mostly Cloudy,280,2013-04-01 09:13:00
4:33 AM,21.2,10.4,63,30.10,10.0,West,15.0,-,N/A,,Mostly Cloudy,280,2013-04-01 09:33:00
4:54 AM,21.2,10.4,63,30.10,10.0,West,15.0,-,N/A,,Scattered Clouds,280,2013-04-01 09:54:00
5:13 AM,19.4,10.4,68,30.11,10.0,WNW,15.0,-,N/A,,Clear,290,2013-04-01 10:13:00
5:33 AM,19.4,10.4,68,30.12,10.0,WNW,15.0,-,N/A,,Clear,290,2013-04-01 10:33:00
5:54 AM,19.4,10.4,68,30.12,10.0,WNW,17.3,-,N/A,,Clear,290,2013-04-01 10:54:00
6:13 AM,19.4,8.6,63,30.13,10.0,WNW,15.0,-,N/A,,Clear,300,2013-04-01 11:13:00
6:34 AM,17.6,8.6,68,30.14,10.0,WNW,15.0,23.0,N/A,,Clear,290,2013-04-01 11:34:00
6:53 AM,17.6,8.6,68,30.14,10.0,WNW,16.1,-,N/A,,Clear,300,2013-04-01 11:53:00
7:13 AM,17.6,8.6,68,30.15,10.0,WNW,18.4,-,N/A,,Clear,300,2013-04-01 12:13:00
7:34 AM,17.6,8.6,68,30.16,10.0,WNW,18.4,23.0,N/A,,Clear,290,2013-04-01 12:34:00
7:53 AM,17.6,8.6,68,30.17,10.0,WNW,16.1,-,N/A,,Clear,300,2013-04-01 12:53:00
8:14 AM,19.4,8.6,63,30.17,10.0,WNW,13.8,-,N/A,,Clear,290,2013-04-01 13:14:00
8:34 AM,19.4,8.6,63,30.18,10.0,WNW,16.1,-,N/A,,Clear,300,2013-04-01 13:34:00
8:53 AM,19.4,8.6,63,30.18,10.0,WNW,15.0,-,N/A,,Clear,300,2013-04-01 13:53:00
9:14 AM,21.2,8.6,58,30.18,10.0,NW,17.3,-,N/A,,Clear,310,2013-04-01 14:14:00
9:33 AM,21.2,8.6,58,30.18,10.0,WNW,16.1,19.6,N/A,,Clear,300,2013-04-01 14:33:00
9:54 AM,21.2,8.6,58,30.19,10.0,NW,13.8,-,N/A,,Clear,310,2013-04-01 14:54:00
10:14 AM,23.0,8.6,54,30.19,10.0,WNW,13.8,-,N/A,,Clear,300,2013-04-01 15:14:00
10:33 AM,24.8,8.6,50,30.19,10.0,WNW,18.4,-,N/A,,Clear,300,2013-04-01 15:33:00
10:54 AM,24.8,10.4,54,30.19,10.0,WNW,15.0,-,N/A,,Clear,290,2013-04-01 15:54:00
11:13 AM,24.8,10.4,54,30.19,10.0,WNW,12.7,-,N/A,,Clear,300,2013-04-01 16:13:00
11:33 AM,26.6,6.8,43,30.19,10.0,NW,12.7,23.0,N/A,,Clear,310,2013-04-01 16:33:00
11:54 AM,26.6,8.6,47,30.19,10.0,WNW,15.0,-,N/A,,Clear,290,2013-04-01 16:54:00
12:13 PM,28.4,8.6,43,30.19,10.0,NW,10.4,13.8,N/A,,Clear,310,2013-04-01 17:13:00
12:34 PM,28.4,6.8,40,30.19,10.0,NW,15.0,24.2,N/A,,Clear,310,2013-04-01 17:34:00
12:54 PM,28.4,8.6,43,30.18,10.0,WNW,11.5,18.4,N/A,,Clear,290,2013-04-01 17:54:00
1:13 PM,30.2,8.6,40,30.18,10.0,WNW,15.0,20.7,N/A,,Clear,300,2013-04-01 18:13:00
1:34 PM,30.2,8.6,40,30.17,10.0,WNW,18.4,25.3,N/A,,Clear,300,2013-04-01 18:34:00
1:53 PM,30.2,6.8,37,30.16,10.0,WNW,20.7,25.3,N/A,,Clear,300,2013-04-01 18:53:00
2:13 PM,32.0,6.8,35,30.16,10.0,NW,17.3,23.0,N/A,,Clear,310,2013-04-01 19:13:00
2:34 PM,32.0,8.6,38,30.15,10.0,WNW,18.4,26.5,N/A,,Clear,300,2013-04-01 19:34:00
2:53 PM,33.8,8.6,35,30.15,10.0,West,12.7,23.0,N/A,,Clear,280,2013-04-01 19:53:00
3:13 PM,33.8,6.8,32,30.15,10.0,WNW,13.8,-,N/A,,Clear,300,2013-04-01 20:13:00
3:34 PM,33.8,10.4,38,30.15,10.0,WNW,17.3,25.3,N/A,,Clear,290,2013-04-01 20:34:00
3:53 PM,33.8,8.6,35,30.14,10.0,WNW,21.9,26.5,N/A,,Clear,300,2013-04-01 20:53:00
4:13 PM,33.8,10.4,38,30.14,10.0,WNW,18.4,25.3,N/A,,Clear,290,2013-04-01 21:13:00
4:34 PM,33.8,8.6,35,30.14,10.0,West,24.2,29.9,N/A,,Clear,280,2013-04-01 21:34:00
5:14 PM,33.8,12.2,41,30.14,10.0,WNW,16.1,24.2,N/A,,Clear,290,2013-04-01 22:14:00
5:33 PM,33.8,10.4,38,30.14,10.0,West,20.7,24.2,N/A,,Clear,280,2013-04-01 22:33:00
5:53 PM,33.8,10.4,38,30.14,10.0,West,21.9,-,N/A,,Clear,280,2013-04-01 22:53:00
6:14 PM,33.8,10.4,38,30.14,10.0,West,23.0,26.5,N/A,,Clear,280,2013-04-01 23:14:00
6:33 PM,33.8,10.4,38,30.14,10.0,West,16.1,24.2,N/A,,Clear,280,2013-04-01 23:33:00
6:53 PM,33.8,10.4,38,30.14,10.0,WNW,19.6,25.3,N/A,,Clear,300,2013-04-01 23:53:00
7:14 PM,32.0,12.2,44,30.14,10.0,WNW,16.1,25.3,N/A,,Clear,290,2013-04-02 00:14:00
7:33 PM,32.0,10.4,41,30.14,10.0,West,18.4,-,N/A,,Clear,280,2013-04-02 00:33:00
7:53 PM,30.2,12.2,47,30.15,10.0,WNW,15.0,21.9,N/A,,Clear,290,2013-04-02 00:53:00
8:14 PM,30.2,12.2,47,30.15,10.0,West,18.4,21.9,N/A,,Clear,280,2013-04-02 01:14:00
8:33 PM,30.2,12.2,47,30.15,10.0,West,12.7,-,N/A,,Clear,280,2013-04-02 01:33:00
8:54 PM,30.2,12.2,47,30.16,10.0,WNW,17.3,-,N/A,,Clear,290,2013-04-02 01:54:00
9:14 PM,30.2,10.4,44,30.16,10.0,West,15.0,-,N/A,,Clear,280,2013-04-02 02:14:00
9:33 PM,28.4,12.2,51,30.17,10.0,West,11.5,19.6,N/A,,Clear,280,2013-04-02 02:33:00
9:54 PM,28.4,12.2,51,30.17,10.0,West,16.1,-,N/A,,Clear,280,2013-04-02 02:54:00
10:14 PM,28.4,12.2,51,30.18,10.0,West,13.8,-,N/A,,Clear,280,2013-04-02 03:14:00
10:33 PM,28.4,12.2,51,30.18,10.0,West,15.0,-,N/A,,Clear,280,2013-04-02 03:33:00
10:54 PM,28.4,12.2,51,30.18,10.0,West,12.7,-,N/A,,Clear,280,2013-04-02 03:54:00
11:14 PM,28.4,10.4,47,30.18,10.0,WNW,16.1,-,N/A,,Clear,290,2013-04-02 04:14:00
11:33 PM,26.6,12.2,55,30.18,10.0,WNW,12.7,-,N/A,,Clear,290,2013-04-02 04:33:00
11:54 PM,26.6,12.2,55,30.19,10.0,WNW,12.7,-,N/A,,Clear,290,2013-04-02 04:54:00